Time;durP1;ratioP1;P1;durP2;ratioP2;P2;SDS_P1;SDS_P2;PMS_P1;PMS_P2;Temp;Humidity;BMP_temperature;BMP_pressure;BME280_temperature;BME280_humidity;BME280_pressure;Samples;Min_cycle;Max_cycle;Signal;HPM_P1;HPM_P2
2024/04/24 00:03:48;;;;;;;;;;;;;;;17.88;41.44;99236.91;11178085;26;1844;-70
2024/04/24 00:08:43;;;;;;;;;;;;;;;17.87;41.60;99220.22;11177333;26;817;-69
2024/04/24 00:13:39;;;;;;;;;;;;;;;17.87;41.84;99229.94;11177125;26;886;-69
2024/04/24 00:18:35;;;;;;;;;;;;;;;17.85;41.57;99221.25;11176970;26;1064;-70
2024/04/24 00:23:31;;;;;;;;;;;;;;;17.85;41.50;99213.31;11176764;26;1837;-69
2024/04/24 00:28:27;;;;;;;;;;;;;;;17.85;41.59;99205.41;11176373;26;817;-70
2024/04/24 00:33:23;;;;;;;;;;;;;;;17.83;41.44;99202.84;11177198;26;899;-69
2024/04/24 00:38:19;;;;;;;;;;;;;;;17.83;41.88;99194.94;11176970;26;1079;-69
2024/04/24 00:43:14;;;;;;;;;;;;;;;17.82;42.08;99185.34;11174579;26;757;-69
2024/04/24 00:48:10;;;;;;;;;;;;;;;17.82;42.10;99176.59;11176003;26;1824;-69
2024/04/24 00:53:06;;;;;;;;;;;;;;;17.82;41.48;99174.78;11176645;26;902;-69
2024/04/24 00:58:02;;;;;;;;;;;;;;;17.81;41.88;99162.53;11175797;26;935;-69
2024/04/24 01:02:58;;;;;;;;;;;;;;;17.81;42.11;99162.53;11174929;26;1280;-70
2024/04/24 01:07:54;;;;;;;;;;;;;;;17.81;41.92;99157.25;11174848;26;1841;-69
2024/04/24 01:12:50;;;;;;;;;;;;;;;17.81;41.88;99151.13;11175385;26;890;-70
2024/04/24 01:17:46;;;;;;;;;;;;;;;17.79;41.73;99153.88;11174597;26;846;-69
2024/04/24 01:22:41;;;;;;;;;;;;;;;17.79;41.97;99145.97;11174319;26;988;-69
2024/04/24 01:27:37;;;;;;;;;;;;;;;17.79;42.04;99142.41;11174800;26;1817;-70
2024/04/24 01:32:33;;;;;;;;;;;;;;;17.79;41.81;99142.41;11174802;26;810;-69
2024/04/24 01:37:29;;;;;;;;;;;;;;;17.78;42.37;99135.44;11174616;26;882;-69
2024/04/24 01:42:25;;;;;;;;;;;;;;;17.77;41.82;99134.63;11172773;26;843;-70
2024/04/24 01:47:21;;;;;;;;;;;;;;;17.77;41.82;99126.69;11174177;26;1821;-70
2024/04/24 01:52:17;;;;;;;;;;;;;;;17.75;42.48;99124.13;11173420;26;875;-69
2024/04/24 01:57:12;;;;;;;;;;;;;;;17.77;41.70;99117.94;11173929;26;825;-70
2024/04/24 02:02:08;;;;;;;;;;;;;;;17.74;42.27;99119.81;11172830;26;1132;-69
2024/04/24 02:07:04;;;;;;;;;;;;;;;17.75;41.63;99116.22;11172843;26;1833;-69
2024/04/24 02:12:00;;;;;;;;;;;;;;;17.74;41.98;99101.34;11172761;26;874;-69
2024/04/24 02:16:56;;;;;;;;;;;;;;;17.73;41.79;99096.16;11172550;26;1017;-70
2024/04/24 02:21:52;;;;;;;;;;;;;;;17.73;41.81;99083.81;11172398;26;825;-70
2024/04/24 02:26:48;;;;;;;;;;;;;;;17.72;42.01;99074.22;11172113;26;1824;-70
2024/04/24 02:31:44;;;;;;;;;;;;;;;17.72;41.77;99079.50;11172005;26;919;-69
2024/04/24 02:36:39;;;;;;;;;;;;;;;17.71;41.91;99062.00;11171864;26;912;-69
2024/04/24 02:41:35;;;;;;;;;;;;;;;17.70;42.30;99070.81;11172236;26;903;-69
2024/04/24 02:46:31;;;;;;;;;;;;;;;17.69;42.09;99063.00;11171368;26;1864;-70
2024/04/24 02:51:27;;;;;;;;;;;;;;;17.69;41.62;99055.94;11172869;26;942;-69
2024/04/24 02:56:23;;;;;;;;;;;;;;;17.69;42.25;99047.19;11179430;26;861;-69
2024/04/24 03:01:19;;;;;;;;;;;;;;;17.67;42.00;99042.00;11179397;26;1206;-69
2024/04/24 03:06:15;;;;;;;;;;;;;;;17.66;41.92;99045.56;11179027;26;1833;-69
2024/04/24 03:11:11;;;;;;;;;;;;;;;17.66;41.83;99047.38;11179561;26;1076;-69
2024/04/24 03:16:07;;;;;;;;;;;;;;;17.65;41.97;99043.84;11178853;26;863;-69
2024/04/24 03:21:03;;;;;;;;;;;;;;;17.64;41.95;99036.88;11179284;26;994;-70
2024/04/24 03:25:59;;;;;;;;;;;;;;;17.63;42.16;99031.69;11179066;26;1842;-70
2024/04/24 03:30:55;;;;;;;;;;;;;;;17.62;41.67;99022.94;11178324;26;892;-69
2024/04/24 03:35:51;;;;;;;;;;;;;;;17.61;42.33;99023.88;11178920;26;795;-70
2024/04/24 03:40:47;;;;;;;;;;;;;;;17.62;41.66;99016.81;11178073;26;859;-69
2024/04/24 03:45:43;;;;;;;;;;;;;;;17.63;41.93;99010.59;11177924;26;1844;-69
2024/04/24 03:50:39;;;;;;;;;;;;;;;17.63;41.91;99000.94;11177870;26;1388;-69
2024/04/24 03:55:35;;;;;;;;;;;;;;;17.64;42.00;98991.25;11177606;26;868;-69
2024/04/24 04:00:30;;;;;;;;;;;;;;;17.65;42.22;98996.41;11177370;26;1207;-70
2024/04/24 04:05:27;;;;;;;;;;;;;;;17.67;41.89;98993.72;11175969;26;1844;-69
2024/04/24 04:10:23;;;;;;;;;;;;;;;17.67;42.28;98986.66;11177288;26;821;-70
2024/04/24 04:15:19;;;;;;;;;;;;;;;17.68;42.18;98987.50;11176382;26;922;-70
2024/04/24 04:20:15;;;;;;;;;;;;;;;17.69;41.93;98983.94;11176963;26;855;-70
2024/04/24 04:25:11;;;;;;;;;;;;;;;17.70;41.83;98977.72;11174397;26;1833;-70
2024/04/24 04:30:07;;;;;;;;;;;;;;;17.71;41.65;98972.38;11176002;26;832;-70
2024/04/24 04:35:03;;;;;;;;;;;;;;;17.72;41.71;98963.53;11176560;26;881;-69
2024/04/24 04:39:58;;;;;;;;;;;;;;;17.72;42.14;98952.97;11175704;26;966;-70
2024/04/24 04:44:54;;;;;;;;;;;;;;;17.72;41.61;98960.03;11176194;26;1828;-70
2024/04/24 04:49:50;;;;;;;;;;;;;;;17.74;41.65;98958.19;11175381;26;1179;-70
2024/04/24 04:54:46;;;;;;;;;;;;;;;17.75;42.32;98963.34;11175995;26;879;-69
2024/04/24 04:59:42;;;;;;;;;;;;;;;17.75;42.05;98963.34;11175390;26;1178;-69
2024/04/24 05:04:38;;;;;;;;;;;;;;;17.78;41.67;98958.84;11175489;26;1833;-70
2024/04/24 05:09:35;;;;;;;;;;;;;;;17.79;42.24;98958.81;11174865;26;970;-70
2024/04/24 05:14:31;;;;;;;;;;;;;;;17.80;41.86;98959.66;11174060;26;823;-69
2024/04/24 05:19:27;;;;;;;;;;;;;;;17.80;42.37;98957.84;11175489;26;992;-70
2024/04/24 05:24:22;;;;;;;;;;;;;;;17.81;42.07;98953.44;11174369;26;1849;-70
2024/04/24 05:29:18;;;;;;;;;;;;;;;17.81;41.99;98954.28;11174267;26;1184;-70
2024/04/24 05:34:15;;;;;;;;;;;;;;;17.82;42.16;98941.97;11172514;26;1171;-68
2024/04/24 05:39:11;;;;;;;;;;;;;;;17.83;42.10;98938.38;11172230;26;877;-69
2024/04/24 05:44:06;;;;;;;;;;;;;;;17.83;41.87;98935.75;11173337;26;1837;-70
2024/04/24 05:49:02;;;;;;;;;;;;;;;17.83;42.32;98923.41;11172801;26;970;-69
2024/04/24 05:53:58;;;;;;;;;;;;;;;17.83;41.80;98915.50;11173474;26;958;-69
2024/04/24 05:58:54;;;;;;;;;;;;;;;17.84;42.21;98916.34;11173255;26;1135;-69
2024/04/24 06:03:50;;;;;;;;;;;;;;;17.84;42.36;98916.34;11173602;26;1836;-70
2024/04/24 06:08:46;;;;;;;;;;;;;;;17.84;42.33;98917.22;11174211;26;897;-69
2024/04/24 06:13:42;;;;;;;;;;;;;;;17.85;42.53;98915.44;11173358;26;883;-71
2024/04/24 06:18:38;;;;;;;;;;;;;;;17.83;42.49;98912.03;11173131;26;880;-70
2024/04/24 06:23:33;;;;;;;;;;;;;;;17.81;42.20;98906.81;11173556;26;1824;-70
2024/04/24 06:28:29;;;;;;;;;;;;;;;17.80;42.55;98906.94;11178301;26;915;-72
2024/04/24 06:33:25;;;;;;;;;;;;;;;17.78;42.45;98914.03;11180018;26;1070;-70
2024/04/24 06:38:21;;;;;;;;;;;;;;;17.76;41.94;98906.19;11180539;26;907;-69
2024/04/24 06:43:19;;;;;;;;;;;;;;;17.77;42.39;98907.06;11179747;26;830;-70
2024/04/24 06:48:15;;;;;;;;;;;;;;;17.75;42.19;98910.63;11180233;26;1828;-70
2024/04/24 06:53:11;;;;;;;;;;;;;;;17.77;42.41;98901.81;11179495;26;942;-70
2024/04/24 06:58:07;;;;;;;;;;;;;;;17.77;42.45;98886.00;11179254;26;1079;-69
2024/04/24 07:03:02;;;;;;;;;;;;;;;17.75;41.97;98886.91;11179083;26;1208;-70
2024/04/24 07:07:58;;;;;;;;;;;;;;;17.74;42.07;98885.22;11178926;26;1856;-70
2024/04/24 07:12:54;;;;;;;;;;;;;;;17.75;42.07;98876.38;11179600;26;912;-70
2024/04/24 07:17:51;;;;;;;;;;;;;;;17.74;41.84;98877.31;11178738;26;835;-70
2024/04/24 07:22:47;;;;;;;;;;;;;;;17.74;42.33;98877.31;11179317;26;876;-70
2024/04/24 07:27:43;;;;;;;;;;;;;;;17.75;42.07;98872.88;11178094;26;1840;-69
2024/04/24 07:32:39;;;;;;;;;;;;;;;17.75;41.75;98876.38;11178370;26;893;-69
2024/04/24 07:37:35;;;;;;;;;;;;;;;17.75;42.05;98865.81;11177890;26;848;-69
2024/04/24 07:42:31;;;;;;;;;;;;;;;17.76;41.80;98866.66;11178135;26;849;-69
2024/04/24 07:47:27;;;;;;;;;;;;;;;17.78;41.67;98866.59;11177853;26;1828;-69
2024/04/24 07:52:22;;;;;;;;;;;;;;;17.80;42.15;98864.75;11178477;26;849;-69
2024/04/24 07:57:18;;;;;;;;;;;;;;;17.80;42.03;98857.69;11177634;26;822;-69
2024/04/24 08:02:14;;;;;;;;;;;;;;;17.80;41.94;98865.59;11177351;26;1171;-69
2024/04/24 08:07:11;;;;;;;;;;;;;;;17.80;41.82;98860.31;11177289;26;1849;-69
2024/04/24 08:12:07;;;;;;;;;;;;;;;17.80;41.95;98855.06;11176604;26;876;-69
2024/04/24 08:17:02;;;;;;;;;;;;;;;17.81;41.87;98859.38;11177004;26;958;-69
2024/04/24 08:21:58;;;;;;;;;;;;;;;17.80;41.87;98856.84;11176233;26;1058;-70
2024/04/24 08:26:54;;;;;;;;;;;;;;;17.82;42.06;98868.16;11176780;26;1825;-69
2024/04/24 08:31:50;;;;;;;;;;;;;;;17.82;42.13;98854.97;11175666;26;893;-70
2024/04/24 08:36:46;;;;;;;;;;;;;;;17.82;42.00;98858.47;11175832;26;815;-69
2024/04/24 08:41:42;;;;;;;;;;;;;;;17.83;42.08;98860.16;11176399;26;819;-70
2024/04/24 08:46:38;;;;;;;;;;;;;;;17.83;41.66;98856.66;11175495;26;1835;-70
2024/04/24 08:51:34;;;;;;;;;;;;;;;17.82;42.22;98854.97;11176265;26;1102;-70
2024/04/24 08:56:32;;;;;;;;;;;;;;;17.82;42.02;98862.88;11175934;26;893;-70
2024/04/24 09:01:28;;;;;;;;;;;;;;;17.84;41.79;98853.97;11175606;26;1103;-71
2024/04/24 09:06:24;;;;;;;;;;;;;;;17.85;41.95;98858.28;11175474;26;1871;-70
2024/04/24 09:11:20;;;;;;;;;;;;;;;17.87;42.42;98855.56;11176180;26;899;-70
2024/04/24 09:16:16;;;;;;;;;;;;;;;17.88;42.00;98854.63;11175273;26;934;-69
2024/04/24 09:21:12;;;;;;;;;;;;;;;17.89;41.86;98837.84;11175215;26;954;-69
2024/04/24 09:26:08;;;;;;;;;;;;;;;17.88;41.90;98837.00;11174996;26;1832;-70
2024/04/24 09:31:04;;;;;;;;;;;;;;;17.89;42.40;98832.56;11174946;26;897;-70
2024/04/24 09:36:00;;;;;;;;;;;;;;;17.90;42.47;98834.28;11175389;26;922;-70
2024/04/24 09:40:56;;;;;;;;;;;;;;;17.91;42.58;98830.72;11174579;26;970;-69
2024/04/24 09:45:51;;;;;;;;;;;;;;;17.91;42.25;98835.97;11175084;26;1868;-70
2024/04/24 09:50:47;;;;;;;;;;;;;;;17.91;42.51;98849.16;11174962;26;895;-69
2024/04/24 09:55:43;;;;;;;;;;;;;;;17.92;41.96;98850.84;11174622;26;946;-71
2024/04/24 10:00:39;;;;;;;;;;;;;;;17.89;41.79;98858.94;11172746;26;1067;-69
2024/04/24 10:05:35;;;;;;;;;;;;;;;17.90;42.68;98858.03;11174360;26;1837;-69
2024/04/24 10:10:31;;;;;;;;;;;;;;;17.91;42.45;98857.06;11173536;26;886;-69
2024/04/24 10:15:27;;;;;;;;;;;;;;;17.91;42.15;98835.97;11174080;26;876;-70
2024/04/24 10:20:23;;;;;;;;;;;;;;;17.93;41.97;98831.47;11173191;26;919;-70
2024/04/24 10:25:18;;;;;;;;;;;;;;;17.95;42.26;98808.50;11173622;26;1835;-69
2024/04/24 10:30:14;;;;;;;;;;;;;;;17.99;42.01;98802.09;11172816;26;1284;-70
2024/04/24 10:35:10;;;;;;;;;;;;;;;17.99;41.93;98799.47;11173215;26;840;-70
2024/04/24 10:40:06;;;;;;;;;;;;;;;18.05;42.27;98792.97;11173136;26;887;-70
2024/04/24 10:45:02;;;;;;;;;;;;;;;18.08;42.42;98796.28;11172876;26;1866;-70
2024/04/24 10:49:58;;;;;;;;;;;;;;;18.08;42.00;98793.66;11172065;26;942;-70
2024/04/24 10:54:56;;;;;;;;;;;;;;;18.08;42.48;98785.75;11171917;26;863;-69
2024/04/24 10:59:52;;;;;;;;;;;;;;;18.13;42.53;98782.81;11172195;26;1246;-69
2024/04/24 11:04:48;;;;;;;;;;;;;;;18.12;42.52;98768.78;11171345;26;1841;-69
2024/04/24 11:09:44;;;;;;;;;;;;;;;18.14;42.50;98761.63;11171991;26;894;-70
2024/04/24 11:14:39;;;;;;;;;;;;;;;18.14;42.44;98768.69;11175656;26;826;-69
2024/04/24 11:19:35;;;;;;;;;;;;;;;18.10;42.73;98772.44;11179572;26;838;-69
2024/04/24 11:24:31;;;;;;;;;;;;;;;18.08;42.69;98769.94;11178542;26;1852;-70
2024/04/24 11:29:27;;;;;;;;;;;;;;;18.08;42.71;98779.63;11178507;26;884;-70
2024/04/24 11:34:23;;;;;;;;;;;;;;;18.08;42.53;98774.34;11178587;26;867;-69
2024/04/24 11:39:22;;;;;;;;;;;;;;;18.09;42.66;98762.84;11178885;26;830;-69
2024/04/24 11:44:17;;;;;;;;;;;;;;;18.12;42.18;98760.88;11178034;26;1832;-69
2024/04/24 11:49:13;;;;;;;;;;;;;;;18.15;42.08;98750.13;11178697;26;852;-70
2024/04/24 11:54:09;;;;;;;;;;;;;;;18.14;42.81;98745.81;11178509;26;922;-70
2024/04/24 11:59:05;;;;;;;;;;;;;;;18.17;42.11;98735.06;11177066;26;1496;-70
2024/04/24 12:04:01;;;;;;;;;;;;;;;18.14;42.38;98739.69;11177052;26;1837;-70
2024/04/24 12:08:57;;;;;;;;;;;;;;;18.18;42.75;98728.00;11177306;26;1024;-70
2024/04/24 12:13:53;;;;;;;;;;;;;;;18.17;42.63;98727.16;11177131;26;838;-70
2024/04/24 12:18:50;;;;;;;;;;;;;;;18.15;42.49;98717.63;11177116;26;915;-70
2024/04/24 12:23:46;;;;;;;;;;;;;;;18.15;42.28;98710.56;11175435;26;1825;-70
2024/04/24 12:28:42;;;;;;;;;;;;;;;18.17;42.28;98703.41;11175539;26;934;-69
2024/04/24 12:33:40;;;;;;;;;;;;;;;18.17;42.31;98689.38;11175555;26;897;-70
2024/04/24 12:38:36;;;;;;;;;;;;;;;18.18;42.24;98686.66;11175379;26;873;-69
2024/04/24 12:43:32;;;;;;;;;;;;;;;18.15;42.32;98684.19;11175229;26;906;-70
2024/04/24 12:48:28;;;;;;;;;;;;;;;18.14;42.67;98694.84;11175666;26;1824;-69
2024/04/24 12:53:24;;;;;;;;;;;;;;;18.11;42.48;98695.91;11175034;26;829;-69
2024/04/24 12:58:20;;;;;;;;;;;;;;;18.10;42.12;98710.03;11174704;26;1387;-69
2024/04/24 13:03:18;;;;;;;;;;;;;;;18.09;42.38;98729.41;11174589;26;1464;-70
2024/04/24 13:08:14;;;;;;;;;;;;;;;18.11;42.13;98703.81;11174522;26;1832;-69
2024/04/24 13:13:10;;;;;;;;;;;;;;;18.18;42.42;98699.00;11175029;26;970;-69
2024/04/24 13:18:06;;;;;;;;;;;;;;;18.23;41.91;98677.59;11174156;26;937;-70
2024/04/24 13:23:02;;;;;;;;;;;;;;;18.26;42.51;98667.72;11174161;26;917;-69
2024/04/24 13:27:58;;;;;;;;;;;;;;;18.30;42.24;98652.56;11174535;26;1865;-69
2024/04/24 13:32:53;;;;;;;;;;;;;;;18.33;42.42;98640.00;11174422;26;904;-69
2024/04/24 13:37:49;;;;;;;;;;;;;;;18.27;42.31;98639.56;11173061;26;885;-69
2024/04/24 13:42:46;;;;;;;;;;;;;;;18.24;42.53;98642.41;11174265;26;903;-69
2024/04/24 13:47:41;;;;;;;;;;;;;;;18.22;42.47;98644.28;11173269;26;1817;-69
2024/04/24 13:52:37;;;;;;;;;;;;;;;18.25;42.41;98649.34;11173745;26;945;-69
2024/04/24 13:57:33;;;;;;;;;;;;;;;18.34;42.68;98640.88;11172910;26;887;-69
2024/04/24 14:02:29;;;;;;;;;;;;;;;18.35;42.38;98638.13;11173569;26;1263;-71
2024/04/24 14:07:25;;;;;;;;;;;;;;;18.30;42.29;98626.16;11173144;26;1842;-70
2024/04/24 14:12:21;;;;;;;;;;;;;;;18.27;42.45;98626.38;11173688;26;1043;-69
2024/04/24 14:17:17;;;;;;;;;;;;;;;18.24;42.42;98635.31;11172897;26;757;-71
2024/04/24 14:22:13;;;;;;;;;;;;;;;18.21;42.46;98676.84;11172726;26;911;-70
2024/04/24 14:27:08;;;;;;;;;;;;;;;18.20;42.40;98677.81;11172437;26;1814;-70
2024/04/24 14:32:04;;;;;;;;;;;;;;;18.20;42.02;98667.25;11173030;26;817;-70
2024/04/24 14:37:00;;;;;;;;;;;;;;;18.24;42.74;98666.97;11172135;26;895;-73
2024/04/24 14:41:58;;;;;;;;;;;;;;;18.27;42.38;98643.03;11172593;26;824;-68
2024/04/24 14:46:54;;;;;;;;;;;;;;;18.31;42.35;98643.69;11173337;26;1825;-68
2024/04/24 14:51:50;;;;;;;;;;;;;;;18.58;41.88;98646.38;11179728;26;905;-68
2024/04/24 14:56:46;;;;;;;;;;;;;;;18.46;42.46;98641.88;11179084;26;891;-68
2024/04/24 15:01:42;;;;;;;;;;;;;;;18.54;42.49;98639.59;11178776;26;1226;-68
2024/04/24 15:06:38;;;;;;;;;;;;;;;18.46;42.52;98628.69;11178703;26;1853;-68
2024/04/24 15:11:36;;;;;;;;;;;;;;;18.40;42.43;98627.28;11178667;26;809;-69
2024/04/24 15:16:32;;;;;;;;;;;;;;;18.41;42.57;98613.13;11179107;26;914;-68
2024/04/24 15:21:28;;;;;;;;;;;;;;;18.38;42.64;98597.50;11178358;26;864;-68
2024/04/24 15:26:24;;;;;;;;;;;;;;;18.41;42.21;98597.31;11178869;26;1822;-68
2024/04/24 15:31:19;;;;;;;;;;;;;;;18.39;42.23;98586.88;11178014;26;940;-68
2024/04/24 15:36:15;;;;;;;;;;;;;;;18.34;42.21;98598.66;11177882;26;860;-68
2024/04/24 15:41:12;;;;;;;;;;;;;;;18.33;42.22;98618.06;11177827;26;851;-68
2024/04/24 15:46:08;;;;;;;;;;;;;;;18.31;42.51;98636.63;11177559;26;1843;-68
2024/04/24 15:51:05;;;;;;;;;;;;;;;18.30;42.76;98634.94;11178224;26;868;-69
2024/04/24 15:56:01;;;;;;;;;;;;;;;18.28;42.72;98633.31;11177352;26;856;-68
2024/04/24 16:00:57;;;;;;;;;;;;;;;18.28;42.59;98628.06;11175648;26;1112;-68
2024/04/24 16:05:53;;;;;;;;;;;;;;;18.27;42.56;98618.47;11176378;26;1833;-69
2024/04/24 16:10:49;;;;;;;;;;;;;;;18.24;42.34;98622.13;11176943;26;823;-69
2024/04/24 16:15:45;;;;;;;;;;;;;;;18.23;42.56;98630.13;11176101;26;899;-69
2024/04/24 16:20:41;;;;;;;;;;;;;;;18.19;42.56;98634.75;11176643;26;938;-70
2024/04/24 16:25:37;;;;;;;;;;;;;;;18.17;42.58;98641.91;11175723;26;1836;-69
2024/04/24 16:30:33;;;;;;;;;;;;;;;18.14;42.72;98645.59;11175701;26;887;-69
2024/04/24 16:35:29;;;;;;;;;;;;;;;18.12;42.65;98655.38;11175561;26;860;-69
2024/04/24 16:40:25;;;;;;;;;;;;;;;18.10;42.74;98646.75;11175309;26;973;-69
2024/04/24 16:45:20;;;;;;;;;;;;;;;18.08;42.63;98638.06;11175886;26;1832;-69
2024/04/24 16:50:16;;;;;;;;;;;;;;;18.07;42.31;98646.91;11175817;26;892;-69
2024/04/24 16:55:12;;;;;;;;;;;;;;;18.07;42.57;98649.53;11175072;26;940;-69
2024/04/24 17:00:08;;;;;;;;;;;;;;;18.07;42.87;98649.53;11175513;26;1290;-69
2024/04/24 17:05:06;;;;;;;;;;;;;;;18.06;43.09;98642.59;11175248;26;1829;-69
2024/04/24 17:10:03;;;;;;;;;;;;;;;18.08;42.74;98638.06;11173450;26;845;-69
2024/04/24 17:14:59;;;;;;;;;;;;;;;18.08;42.69;98635.44;11175717;26;857;-69
2024/04/24 17:19:55;;;;;;;;;;;;;;;18.09;42.60;98633.63;11174971;26;882;-69
2024/04/24 17:24:51;;;;;;;;;;;;;;;18.10;42.32;98640.59;11175369;26;1821;-68
2024/04/24 17:29:46;;;;;;;;;;;;;;;18.10;42.54;98646.75;11175103;26;954;-69
2024/04/24 17:34:42;;;;;;;;;;;;;;;18.09;43.15;98652.09;11175005;26;1074;-69
2024/04/24 17:39:38;;;;;;;;;;;;;;;18.10;42.84;98653.78;11174196;26;920;-75
2024/04/24 17:44:34;;;;;;;;;;;;;;;18.10;42.92;98651.16;11174583;26;1829;-75
2024/04/24 17:49:30;;;;;;;;;;;;;;;18.09;43.08;98652.09;11174552;26;856;-75
2024/04/24 17:54:26;;;;;;;;;;;;;;;18.10;43.09;98653.78;11173674;26;880;-75
2024/04/24 17:59:22;;;;;;;;;;;;;;;18.09;42.98;98681.94;11173744;26;1055;-75
2024/04/24 18:04:18;;;;;;;;;;;;;;;18.09;42.69;98708.31;11173972;26;1864;-75
2024/04/24 18:09:13;;;;;;;;;;;;;;;18.09;43.07;98724.13;11173882;26;814;-75
2024/04/24 18:14:09;;;;;;;;;;;;;;;18.09;42.95;98726.78;11173029;26;1265;-75
2024/04/24 18:19:05;;;;;;;;;;;;;;;18.10;43.16;98680.16;11173562;26;903;-75
2024/04/24 18:24:01;;;;;;;;;;;;;;;18.11;43.08;98689.78;11177298;26;1852;-75
2024/04/24 18:28:57;;;;;;;;;;;;;;;18.10;42.80;98695.97;11179815;26;829;-75
2024/04/24 18:33:53;;;;;;;;;;;;;;;18.09;42.41;98691.66;11179814;26;872;-75
2024/04/24 18:38:49;;;;;;;;;;;;;;;18.10;42.79;98694.22;11180109;26;889;-75
2024/04/24 18:43:47;;;;;;;;;;;;;;;18.10;42.90;98694.22;11179417;26;1824;-75
2024/04/24 18:48:43;;;;;;;;;;;;;;;18.09;42.59;98695.13;11179426;26;891;-75
2024/04/24 18:53:39;;;;;;;;;;;;;;;18.09;42.75;98697.78;11179157;26;876;-75
2024/04/24 18:58:35;;;;;;;;;;;;;;;18.09;42.82;98703.03;11179033;26;821;-75
2024/04/24 19:03:31;;;;;;;;;;;;;;;18.09;42.79;98702.19;11178215;26;1267;-75
2024/04/24 19:08:27;;;;;;;;;;;;;;;18.10;42.59;98706.53;11178670;26;1826;-75
2024/04/24 19:13:23;;;;;;;;;;;;;;;18.09;42.57;98708.31;11177945;26;893;-74
2024/04/24 19:18:20;;;;;;;;;;;;;;;18.10;42.63;98722.34;11178518;26;803;-75
2024/04/24 19:23:16;;;;;;;;;;;;;;;18.10;42.84;98719.72;11178430;26;1001;-75
2024/04/24 19:28:13;;;;;;;;;;;;;;;18.10;42.78;98736.41;11177453;26;1814;-74
2024/04/24 19:33:08;;;;;;;;;;;;;;;18.09;43.15;98728.56;11176087;26;860;-75
2024/04/24 19:38:04;;;;;;;;;;;;;;;18.08;42.55;98733.00;11177840;26;969;-75
2024/04/24 19:43:00;;;;;;;;;;;;;;;18.06;43.00;98729.59;11177824;26;846;-75
2024/04/24 19:47:56;;;;;;;;;;;;;;;18.06;43.16;98734.88;11177024;26;1825;-69
2024/04/24 19:52:52;;;;;;;;;;;;;;;18.06;43.17;98726.97;11177331;26;845;-69
2024/04/24 19:57:48;;;;;;;;;;;;;;;18.05;42.88;98733.19;11177045;26;934;-69
2024/04/24 20:02:44;;;;;;;;;;;;;;;18.04;42.92;98736.75;11177510;26;1242;-69
2024/04/24 20:07:41;;;;;;;;;;;;;;;18.03;42.77;98732.44;11178115;26;1867;-68
2024/04/24 20:12:36;;;;;;;;;;;;;;;18.02;43.11;98741.25;11177259;26;940;-68
2024/04/24 20:17:32;;;;;;;;;;;;;;;18.00;43.07;98739.66;11177252;26;944;-69
2024/04/24 20:22:28;;;;;;;;;;;;;;;17.99;42.47;98744.09;11177118;26;832;-69
2024/04/24 20:27:24;;;;;;;;;;;;;;;18.00;42.50;98747.56;11176875;26;1833;-69
2024/04/24 20:32:20;;;;;;;;;;;;;;;17.99;42.71;98754.63;11177449;26;1235;-69
2024/04/24 20:37:16;;;;;;;;;;;;;;;17.97;42.75;98756.50;11176732;26;1006;-68
2024/04/24 20:42:12;;;;;;;;;;;;;;;17.97;42.67;98759.16;11176497;26;1046;-69
2024/04/24 20:47:08;;;;;;;;;;;;;;;17.95;42.91;98758.41;11175912;26;1829;-69
2024/04/24 20:52:03;;;;;;;;;;;;;;;17.94;42.98;98762.81;11176252;26;1032;-69
2024/04/24 20:56:59;;;;;;;;;;;;;;;17.93;42.84;98771.69;11177017;26;810;-69
2024/04/24 21:01:55;;;;;;;;;;;;;;;17.93;42.46;98770.84;11175848;26;1217;-69
2024/04/24 21:06:51;;;;;;;;;;;;;;;17.91;42.67;98772.72;11175763;26;1865;-69
2024/04/24 21:11:47;;;;;;;;;;;;;;;17.90;42.36;98776.28;11175027;26;912;-69
2024/04/24 21:16:43;;;;;;;;;;;;;;;17.87;42.49;98776.47;11174959;26;825;-69
2024/04/24 21:21:42;;;;;;;;;;;;;;;17.86;42.86;98774.75;11175331;26;913;-69
2024/04/24 21:26:38;;;;;;;;;;;;;;;17.83;42.35;98764.41;11174526;26;1860;-69
2024/04/24 21:31:34;;;;;;;;;;;;;;;17.82;42.49;98766.19;11174358;26;875;-69
2024/04/24 21:36:30;;;;;;;;;;;;;;;17.81;42.79;98767.13;11174287;26;847;-69
2024/04/24 21:41:26;;;;;;;;;;;;;;;17.80;42.44;98764.59;11174726;26;989;-69
2024/04/24 21:46:22;;;;;;;;;;;;;;;17.78;42.70;98763.78;11174019;26;1822;-69
2024/04/24 21:51:18;;;;;;;;;;;;;;;17.77;42.55;98759.47;11173734;26;876;-69
2024/04/24 21:56:14;;;;;;;;;;;;;;;17.75;42.79;98767.47;11172359;26;865;-68
2024/04/24 22:01:10;;;;;;;;;;;;;;;17.75;42.61;98764.81;11174201;26;1073;-69
2024/04/24 22:06:06;;;;;;;;;;;;;;;17.73;42.36;98764.06;11173843;26;1838;-69
2024/04/24 22:11:02;;;;;;;;;;;;;;;17.71;42.69;98766.81;11173732;26;881;-69
2024/04/24 22:15:58;;;;;;;;;;;;;;;17.71;42.97;98771.19;11173646;26;852;-69
2024/04/24 22:20:54;;;;;;;;;;;;;;;17.69;42.74;98767.81;11174031;26;827;-69
2024/04/24 22:25:50;;;;;;;;;;;;;;;17.69;42.63;98768.66;11173438;26;1859;-69
2024/04/24 22:30:46;;;;;;;;;;;;;;;17.68;42.79;98767.00;11173762;26;886;-69
2024/04/24 22:35:41;;;;;;;;;;;;;;;17.67;42.77;98767.91;11172866;26;911;-69
2024/04/24 22:40:37;;;;;;;;;;;;;;;17.66;43.14;98774.13;11172671;26;872;-69
2024/04/24 22:45:33;;;;;;;;;;;;;;;17.66;43.02;98768.00;11172459;26;1852;-68
2024/04/24 22:50:29;;;;;;;;;;;;;;;17.64;42.55;98769.88;11172959;26;920;-69
2024/04/24 22:55:25;;;;;;;;;;;;;;;17.63;43.04;98760.25;11172133;26;970;-69
2024/04/24 23:00:21;;;;;;;;;;;;;;;17.62;43.04;98764.69;11172164;26;1508;-68
2024/04/24 23:05:17;;;;;;;;;;;;;;;17.62;43.10;98761.22;11171649;26;1853;-69
2024/04/24 23:10:12;;;;;;;;;;;;;;;17.61;42.38;98755.09;11177559;26;855;-69
2024/04/24 23:15:08;;;;;;;;;;;;;;;17.60;43.11;98753.38;11179428;26;1036;-68
2024/04/24 23:20:04;;;;;;;;;;;;;;;17.59;42.60;98754.34;11178982;26;817;-69
2024/04/24 23:30:14;;;;;;;;;;;;;;;17.57;42.40;98750.94;11179651;26;614;-69
2024/04/24 23:35:10;;;;;;;;;;;;;;;17.57;42.45;98750.09;11178551;26;854;-69
2024/04/24 23:40:06;;;;;;;;;;;;;;;17.53;42.34;98745.00;11178377;26;1111;-69
2024/04/24 23:45:02;;;;;;;;;;;;;;;17.53;42.73;98747.63;11178566;26;1814;-68
2024/04/24 23:49:58;;;;;;;;;;;;;;;17.53;42.72;98733.63;11178763;26;855;-69
2024/04/24 23:54:54;;;;;;;;;;;;;;;17.52;42.81;98739.81;11177880;26;898;-69
2024/04/24 23:59:50;;;;;;;;;;;;;;;17.50;42.57;98732.00;11177322;26;1318;-68
